TimeEDT,TemperatureF,Dew PointF,Humidity,Sea Level PressureIn,VisibilityMPH,Wind Direction,Wind SpeedMPH,Gust SpeedMPH,PrecipitationIn,Events,Conditions,WindDirDegrees,DateUTC
12:53 AM,73.9,72.0,93,30.01,10.0,Calm,Calm,-,N/A,,Clear,0,2012-10-06 04:53:00
1:53 AM,73.9,72.0,93,29.99,10.0,Calm,Calm,-,N/A,,Clear,0,2012-10-06 05:53:00
2:53 AM,73.0,72.0,96,29.98,10.0,Calm,Calm,-,N/A,,Scattered Clouds,0,2012-10-06 06:53:00
3:03 AM,73.4,71.6,94,29.99,10.0,North,4.6,-,N/A,,Mostly Cloudy,360,2012-10-06 07:03:00
3:11 AM,73.4,71.6,94,29.98,10.0,North,3.5,-,N/A,,Scattered Clouds,10,2012-10-06 07:11:00
3:53 AM,73.9,72.0,93,29.96,10.0,Calm,Calm,-,N/A,,Partly Cloudy,0,2012-10-06 07:53:00
4:53 AM,73.0,72.0,96,29.96,10.0,Calm,Calm,-,N/A,,Clear,0,2012-10-06 08:53:00
5:26 AM,71.6,71.6,100,29.97,4.0,Calm,Calm,-,N/A,,Mostly Cloudy,0,2012-10-06 09:26:00
5:35 AM,71.6,71.6,100,29.97,2.0,Calm,Calm,-,N/A,,Overcast,0,2012-10-06 09:35:00
5:43 AM,73.4,71.6,94,29.97,6.0,Calm,Calm,-,N/A,,Overcast,0,2012-10-06 09:43:00
5:53 AM,72.0,71.1,97,29.97,3.0,NW,3.5,-,N/A,,Overcast,320,2012-10-06 09:53:00
5:57 AM,71.6,71.6,100,29.98,1.8,NW,3.5,-,N/A,,Overcast,320,2012-10-06 09:57:00
6:53 AM,72.0,71.1,97,29.98,1.5,Calm,Calm,-,N/A,,Overcast,0,2012-10-06 10:53:00
6:58 AM,71.6,71.6,100,29.98,3.0,Calm,Calm,-,N/A,,Overcast,0,2012-10-06 10:58:00
7:18 AM,71.6,71.6,100,29.98,1.5,Calm,Calm,-,N/A,,Overcast,0,2012-10-06 11:18:00
7:44 AM,71.6,71.6,100,29.98,0.8,Calm,Calm,-,N/A,,Overcast,0,2012-10-06 11:44:00
7:53 AM,72.0,71.1,97,29.98,0.5,Calm,Calm,-,N/A,Fog,Fog,0,2012-10-06 11:53:00
8:09 AM,71.6,71.6,100,29.99,0.2,Calm,Calm,-,N/A,Fog,Fog,0,2012-10-06 12:09:00
8:53 AM,73.0,72.0,96,29.99,0.8,Calm,Calm,-,N/A,,Overcast,0,2012-10-06 12:53:00
9:00 AM,73.4,71.6,94,30.00,1.2,Calm,Calm,-,N/A,,Overcast,0,2012-10-06 13:00:00
9:27 AM,73.4,73.4,100,30.00,3.0,North,-9999.0,-,N/A,,Overcast,0,2012-10-06 13:27:00
10:42 AM,78.8,73.4,83,30.01,10.0,Calm,Calm,-,N/A,,Mostly Cloudy,0,2012-10-06 14:42:00
10:53 AM,80.1,73.9,81,30.00,10.0,Calm,Calm,-,N/A,,Overcast,0,2012-10-06 14:53:00
11:32 AM,84.2,73.4,70,30.00,10.0,Calm,Calm,-,N/A,,Scattered Clouds,0,2012-10-06 15:32:00
11:53 AM,82.9,73.0,72,29.99,10.0,WNW,4.6,-,N/A,,Partly Cloudy,300,2012-10-06 15:53:00
12:53 PM,84.9,72.0,65,29.97,10.0,Variable,4.6,-,N/A,,Scattered Clouds,0,2012-10-06 16:53:00
1:53 PM,86.0,72.0,63,29.94,10.0,Variable,6.9,-,N/A,,Scattered Clouds,0,2012-10-06 17:53:00
2:12 PM,84.2,71.6,66,29.93,10.0,NNW,5.8,-,N/A,,Mostly Cloudy,340,2012-10-06 18:12:00
2:22 PM,86.0,71.6,62,29.93,10.0,NNW,4.6,-,N/A,,Scattered Clouds,330,2012-10-06 18:22:00
2:53 PM,86.0,71.1,61,29.91,10.0,North,5.8,-,N/A,,Partly Cloudy,10,2012-10-06 18:53:00
3:53 PM,87.1,70.0,57,29.90,10.0,Variable,5.8,-,N/A,,Scattered Clouds,0,2012-10-06 19:53:00
4:53 PM,82.9,71.1,67,29.90,10.0,ENE,9.2,-,N/A,,Scattered Clouds,70,2012-10-06 20:53:00
5:53 PM,82.0,72.0,71,29.90,10.0,East,6.9,-,N/A,,Partly Cloudy,80,2012-10-06 21:53:00
6:53 PM,79.0,71.1,77,29.91,10.0,East,5.8,-,N/A,,Partly Cloudy,100,2012-10-06 22:53:00
7:53 PM,75.9,71.1,85,29.93,10.0,ESE,3.5,-,N/A,,Clear,110,2012-10-06 23:53:00
8:53 PM,73.9,71.1,91,29.95,10.0,SSE,3.5,-,N/A,,Clear,150,2012-10-07 00:53:00
9:53 PM,73.0,70.0,90,29.96,10.0,Calm,Calm,-,N/A,,Clear,0,2012-10-07 01:53:00
10:53 PM,73.0,70.0,90,29.97,10.0,Calm,Calm,-,N/A,,Clear,0,2012-10-07 02:53:00
11:53 PM,71.1,69.1,93,29.96,10.0,Calm,Calm,-,N/A,,Clear,0,2012-10-07 03:53:00